Brampton, North Dakota
Current Conditions -  °F | °C
As of 2:15 PM on Monday 24 Nov 2014 (Local Time) from KGWR Reporting Station
Clear Clear  
Wind Chill:   Ceiling: Unl
Heat Index: 25°   Visibility: 10mi
Dew Point: 14°   Wind: 24mph
Humidity: 64%   Direction: 330°NNW
Pressure: 29.82"   Gusts: 33mph
Location:  46.0772°N, 97.8609°W
Report Text: KGWR 242015Z AUTO 33021G29KT 10SM CLR M04/M10 A2982 RMK A01 P000
Loading
Personal Weather Stations






























Interactive Weather Map New forecast layout! Learn more

10-Day Weather Forecast

Advertisements
Track Severe Weather on mobile